Time;durP1;ratioP1;P1;durP2;ratioP2;P2;SDS_P1;SDS_P2;PMS_P1;PMS_P2;Temp;Humidity;BMP_temperature;BMP_pressure;BME280_temperature;BME280_humidity;BME280_pressure;Samples;Min_cycle;Max_cycle;Signal;HPM_P1;HPM_P2
2022/09/05 00:02:00;;;;;;;7.00;5.85;;;;;;;18.55;100.00;95071.56;5031773;28;20201;-65
2022/09/05 00:05:08;;;;;;;6.38;5.68;;;;;;;18.59;100.00;95065.09;5012365;28;20214;-64
2022/09/05 00:07:36;;;;;;;7.25;6.55;;;;;;;18.48;100.00;95073.22;4951302;29;20250;-64
2022/09/05 00:10:07;;;;;;;6.88;6.28;;;;;;;18.33;100.00;95055.88;5019438;28;20714;-63
2022/09/05 00:12:35;;;;;;;7.78;6.97;;;;;;;18.29;100.00;95061.50;5031110;28;20694;-62
2022/09/05 00:15:09;;;;;;;7.78;7.07;;;;;;;18.25;100.00;95067.97;5030978;28;20221;-61
2022/09/05 00:17:41;;;;;;;8.35;6.70;;;;;;;18.36;100.00;95065.03;5029857;28;20189;-62
2022/09/05 00:20:15;;;;;;;8.23;7.40;;;;;;;18.37;100.00;95059.72;5030968;28;20213;-64
2022/09/05 00:22:53;;;;;;;7.68;6.88;;;;;;;18.36;100.00;95060.66;5031324;28;20185;-62
2022/09/05 00:25:33;;;;;;;9.45;6.75;;;;;;;18.43;100.00;95092.56;5012502;28;20217;-61
2022/09/05 00:28:17;;;;;;;9.95;7.53;;;;;;;18.41;100.00;95086.72;5030975;28;20185;-62
2022/09/05 00:31:10;;;;;;;7.90;7.10;;;;;;;18.42;100.00;95077.25;5031283;28;20194;-61
2022/09/05 00:36:33;;;;;;;8.85;7.10;;;;;;;18.21;100.00;95051.25;5045929;22;20703;-63
2022/09/05 00:39:06;;;;;;;8.30;7.25;;;;;;;18.12;100.00;95062.56;5031103;28;20210;-62
2022/09/05 00:41:33;;;;;;;9.75;7.88;;;;;;;18.08;100.00;95064.63;5030914;28;20178;-62
2022/09/05 00:44:00;;;;;;;7.93;7.13;;;;;;;18.10;100.00;95075.56;5030600;28;20233;-63
2022/09/05 00:46:31;;;;;;;9.18;7.15;;;;;;;18.11;100.00;95079.75;5030613;28;20687;-61
2022/09/05 00:49:37;;;;;;;8.68;7.03;;;;;;;18.08;100.00;95095.50;5030880;28;20202;-61
2022/09/05 00:52:14;;;;;;;8.68;6.97;;;;;;;18.25;100.00;95094.50;5030671;28;20218;-62
2022/09/05 00:54:57;;;;;;;8.57;6.70;;;;;;;18.17;100.00;95096.28;5030698;28;20679;-62
2022/09/05 00:57:44;;;;;;;8.25;6.80;;;;;;;18.11;100.00;95097.75;5038026;22;20324;-63
2022/09/05 01:00:10;;;;;;;7.97;6.47;;;;;;;18.15;100.00;95111.91;5030541;28;20292;-62
2022/09/05 01:03:14;;;;;;;7.32;6.63;;;;;;;18.18;100.00;95121.09;5030477;28;20317;-63
2022/09/05 01:05:46;;;;;;;8.10;7.28;;;;;;;18.08;100.00;95090.34;5030338;28;20706;-62
2022/09/05 01:08:36;;;;;;;7.18;6.47;;;;;;;18.06;100.00;95124.97;5030204;28;20237;-62
2022/09/05 01:11:17;;;;;;;7.75;7.05;;;;;;;18.08;100.00;95100.66;5030370;28;20186;-62
2022/09/05 01:14:26;;;;;;;7.90;7.20;;;;;;;17.96;100.00;95086.53;5030396;28;20256;-62
2022/09/05 01:17:11;;;;;;;11.63;7.70;;;;;;;17.93;100.00;95084.31;5032642;28;20202;-62
2022/09/05 01:20:07;;;;;;;8.00;7.20;;;;;;;17.91;100.00;95075.13;5033814;28;20285;-64
2022/09/05 01:23:04;;;;;;;9.00;7.28;;;;;;;17.96;100.00;95091.69;5034031;28;20186;-63
2022/09/05 01:26:00;;;;;;;8.18;6.55;;;;;;;17.95;100.00;95105.53;5033642;28;20248;-62
2022/09/05 01:29:06;;;;;;;7.70;6.53;;;;;;;17.92;100.00;95094.72;5033766;28;20202;-62
2022/09/05 01:32:09;;;;;;;7.63;6.13;;;;;;;17.93;100.00;95091.22;5004672;28;20198;-61
2022/09/05 01:34:56;;;;;;;7.50;6.70;;;;;;;17.93;100.00;95101.50;5033841;28;20205;-62
2022/09/05 01:37:26;;;;;;;6.57;5.95;;;;;;;17.81;100.00;95089.94;5033862;28;20659;-62
2022/09/05 01:40:12;;;;;;;6.10;5.60;;;;;;;17.83;100.00;95083.69;5033446;28;20306;-63
2022/09/05 01:43:03;;;;;;;6.85;6.25;;;;;;;17.97;100.00;95084.75;5032802;28;20210;-62
2022/09/05 01:45:50;;;;;;;6.22;5.65;;;;;;;18.09;100.00;95110.00;5033358;28;20238;-61
2022/09/05 01:48:22;;;;;;;6.30;5.70;;;;;;;17.98;100.00;95087.16;5033228;28;20186;-61
2022/09/05 01:51:08;;;;;;;7.10;5.88;;;;;;;18.02;100.00;95093.59;5033312;28;20194;-62
2022/09/05 01:53:57;;;;;;;7.05;5.60;;;;;;;17.94;100.00;95079.94;5033247;28;20210;-62
2022/09/05 01:56:41;;;;;;;6.82;6.10;;;;;;;17.96;100.00;95125.13;5032809;28;20217;-62
2022/09/05 01:59:15;;;;;;;8.82;6.43;;;;;;;17.86;100.00;95097.97;5033467;28;20202;-62
2022/09/05 02:01:59;;;;;;;8.15;5.97;;;;;;;17.88;100.00;95085.72;5033444;28;20248;-61
2022/09/05 02:05:05;;;;;;;6.93;5.70;;;;;;;17.96;100.00;95081.38;5015164;28;20209;-63
2022/09/05 02:10:21;;;;;;;7.13;6.40;;;;;;;17.99;100.00;95103.41;5040878;22;20238;-63
2022/09/05 02:13:10;;;;;;;6.68;6.13;;;;;;;17.91;100.00;95085.41;5033258;28;20782;-62
2022/09/05 02:15:49;;;;;;;6.60;5.82;;;;;;;18.05;100.00;95103.56;5033164;28;20660;-62
2022/09/05 02:18:22;;;;;;;6.43;5.82;;;;;;;18.10;100.00;95149.41;5032923;28;20197;-62
2022/09/05 02:20:56;;;;;;;11.23;6.07;;;;;;;18.11;100.00;95145.84;5033020;28;20182;-61
2022/09/05 02:23:35;;;;;;;6.55;5.93;;;;;;;18.04;100.00;95130.25;5033107;28;20202;-62
2022/09/05 02:26:22;;;;;;;7.28;6.18;;;;;;;17.93;100.00;95096.34;5032934;28;20202;-61
2022/09/05 02:29:12;;;;;;;6.07;5.53;;;;;;;17.93;100.00;95120.31;5032094;28;20245;-62
2022/09/05 02:31:56;;;;;;;6.28;5.53;;;;;;;17.93;100.00;95117.75;5014842;28;20186;-61
2022/09/05 02:34:24;;;;;;;5.80;5.22;;;;;;;17.94;100.00;95136.53;5032553;28;20245;-62
2022/09/05 02:37:02;;;;;;;6.20;5.60;;;;;;;17.83;100.00;95103.44;5032578;28;20566;-63
2022/09/05 02:44:48;;;;;;;5.28;4.63;;;;;;;17.84;100.00;95123.84;5039951;22;20233;-62
2022/09/05 02:47:41;;;;;;;6.22;5.20;;;;;;;17.97;100.00;95144.75;5032618;28;20229;-62
2022/09/05 02:50:07;;;;;;;5.32;4.53;;;;;;;17.97;100.00;95106.16;5032338;28;20573;-61
2022/09/05 02:52:36;;;;;;;5.22;4.72;;;;;;;17.77;100.00;95104.91;5032459;28;20671;-62
2022/09/05 02:55:10;;;;;;;4.82;4.32;;;;;;;17.73;100.00;95098.47;5032433;28;20214;-62
2022/09/05 02:58:06;;;;;;;4.55;3.92;;;;;;;17.82;100.00;95120.63;5032396;28;20213;-61
2022/09/05 03:00:45;;;;;;;4.63;4.07;;;;;;;17.82;100.00;95110.34;5031638;28;20751;-63
2022/09/05 03:03:36;;;;;;;5.22;4.60;;;;;;;17.55;100.00;95090.13;5032319;28;20575;-62
2022/09/05 03:06:11;;;;;;;5.05;3.33;;;;;;;17.58;100.00;95094.94;4977913;28;20233;-62
2022/09/05 03:08:42;;;;;;;3.85;3.55;;;;;;;17.76;100.00;95120.47;5032315;28;20597;-62
2022/09/05 03:14:10;;;;;;;3.75;3.45;;;;;;;17.81;100.00;95136.25;5039805;22;20222;-61
2022/09/05 03:16:54;;;;;;;4.43;4.03;;;;;;;17.83;100.00;95126.59;5031958;28;20244;-61
2022/09/05 03:19:53;;;;;;;4.35;3.95;;;;;;;17.89;100.00;95144.75;5014082;28;20209;-61
2022/09/05 03:22:31;;;;;;;6.20;4.20;;;;;;;17.93;100.00;95170.97;5039655;22;20261;-63
2022/09/05 03:25:13;;;;;;;5.07;4.43;;;;;;;17.94;100.00;95178.50;5031774;28;20206;-63
2022/09/05 03:28:06;;;;;;;4.80;4.30;;;;;;;17.85;100.00;95194.94;5032211;28;20189;-62
2022/09/05 03:33:27;;;;;;;5.43;4.55;;;;;;;17.53;100.00;95154.53;5038948;22;20817;-62
2022/09/05 03:36:15;;;;;;;5.72;4.25;;;;;;;17.46;100.00;95130.41;5012186;28;20670;-62
2022/09/05 03:39:02;;;;;;;4.93;4.43;;;;;;;17.51;100.00;95155.69;5011765;28;20221;-61
2022/09/05 03:44:31;;;;;;;5.10;4.60;;;;;;;17.55;100.00;95156.97;5038987;22;20229;-62
2022/09/05 03:47:02;;;;;;;5.55;4.32;;;;;;;17.50;100.00;95185.72;5031726;28;20206;-60
2022/09/05 03:49:42;;;;;;;5.35;4.40;;;;;;;17.38;100.00;95155.31;5031384;28;20578;-61
2022/09/05 03:52:21;;;;;;;5.68;4.20;;;;;;;17.50;100.00;95144.59;5031416;28;20212;-60
2022/09/05 03:55:21;;;;;;;6.18;4.68;;;;;;;17.55;100.00;95192.97;5031377;28;20201;-63
2022/09/05 03:58:19;;;;;;;9.05;4.22;;;;;;;17.40;100.00;95182.47;5031578;28;20193;-61
2022/09/05 04:01:34;;;;;;;4.75;4.30;;;;;;;17.45;100.00;95182.00;5025860;28;20283;-63
2022/09/05 04:04:32;;;;;;;4.50;4.10;;;;;;;17.38;100.00;95160.44;4996827;28;20230;-63
2022/09/05 04:07:07;;;;;;;5.15;4.35;;;;;;;17.28;100.00;95149.50;5030861;28;20194;-61
2022/09/05 04:09:44;;;;;;;6.18;4.28;;;;;;;17.36;100.00;95177.78;5013797;28;20260;-61
2022/09/05 04:12:12;;;;;;;5.43;4.93;;;;;;;17.47;100.00;95169.78;5031157;28;20189;-61
2022/09/05 04:15:05;;;;;;;6.22;4.97;;;;;;;17.37;100.00;95143.44;5031082;28;20321;-63
2022/09/05 04:17:42;;;;;;;5.35;4.88;;;;;;;17.29;100.00;95139.06;5031281;28;20185;-60
2022/09/05 04:20:24;;;;;;;5.65;5.07;;;;;;;17.31;100.00;95151.78;5031278;28;20205;-60
2022/09/05 04:23:30;;;;;;;7.63;5.32;;;;;;;17.35;100.00;95150.50;5031275;28;20202;-61
2022/09/05 04:26:21;;;;;;;7.28;5.03;;;;;;;17.50;100.00;95144.59;5012624;28;20230;-60
2022/09/05 04:29:24;;;;;;;7.55;5.53;;;;;;;17.58;100.00;95183.16;5030781;28;20320;-61
2022/09/05 04:31:54;;;;;;;9.00;4.97;;;;;;;17.56;100.00;95169.66;5013097;28;20213;-61
2022/09/05 04:34:46;;;;;;;7.85;5.00;;;;;;;17.51;100.00;95164.19;5030859;28;20214;-61
2022/09/05 04:37:29;;;;;;;8.10;5.15;;;;;;;17.57;100.00;95167.91;4995462;28;20264;-62
2022/09/05 04:39:54;;;;;;;6.65;5.35;;;;;;;17.57;100.00;95165.34;5030815;28;20220;-61
2022/09/05 04:42:24;;;;;;;5.50;4.68;;;;;;;17.71;100.00;95180.13;5030644;28;20663;-61
2022/09/05 04:44:59;;;;;;;6.38;4.80;;;;;;;17.76;100.00;95165.00;5013062;28;20221;-63
2022/09/05 04:47:35;;;;;;;8.50;4.85;;;;;;;17.77;100.00;95181.25;5030667;28;20263;-60
2022/09/05 04:50:10;;;;;;;5.97;5.15;;;;;;;17.59;100.00;95205.34;5030833;28;20202;-62
2022/09/05 04:52:54;;;;;;;5.65;5.15;;;;;;;17.76;100.00;95203.59;5033611;28;20226;-62
2022/09/05 04:55:22;;;;;;;8.02;5.07;;;;;;;17.86;100.00;95222.25;5034089;28;20722;-62
2022/09/05 04:57:59;;;;;;;6.57;5.95;;;;;;;17.95;100.00;95218.72;5042762;22;20190;-61
2022/09/05 05:00:42;;;;;;;5.03;4.53;;;;;;;18.23;100.00;95238.03;5013051;28;20234;-60
2022/09/05 05:03:22;;;;;;;7.18;5.43;;;;;;;18.24;100.00;95231.88;5014589;28;20274;-62
2022/09/05 05:05:47;;;;;;;8.85;5.43;;;;;;;18.12;100.00;95225.47;5014142;28;20206;-60
2022/09/05 05:08:34;;;;;;;7.80;5.40;;;;;;;18.19;100.00;95226.44;5014433;28;20191;-60
2022/09/05 05:11:12;;;;;;;6.00;5.45;;;;;;;18.12;100.00;95233.19;5013902;28;20691;-61
2022/09/05 05:14:07;;;;;;;6.35;5.72;;;;;;;18.10;100.00;95231.75;4996440;28;20218;-61
2022/09/05 05:16:40;;;;;;;10.00;6.00;;;;;;;18.17;100.00;95240.44;5014074;28;20186;-62
2022/09/05 05:19:30;;;;;;;7.07;6.10;;;;;;;18.09;100.00;95246.38;5014268;28;20218;-62
2022/09/05 05:22:02;;;;;;;6.38;5.70;;;;;;;18.18;100.00;95278.88;5014178;28;20240;-61
2022/09/05 05:24:42;;;;;;;6.88;6.18;;;;;;;18.15;100.00;95256.03;5013907;28;20213;-60
2022/09/05 05:27:26;;;;;;;6.88;6.28;;;;;;;17.96;100.00;95229.78;5013945;28;20186;-62
2022/09/05 05:30:05;;;;;;;7.43;6.50;;;;;;;18.24;100.00;95177.81;5014337;28;20223;-59
2022/09/05 05:32:43;;;;;;;7.95;6.75;;;;;;;18.52;100.00;95216.13;5013726;28;20185;-62
2022/09/05 05:35:10;;;;;;;6.60;6.00;;;;;;;18.52;100.00;95257.31;5025018;22;20226;-60
2022/09/05 05:37:54;;;;;;;10.35;7.28;;;;;;;18.66;100.00;95293.53;5033407;28;20190;-60
2022/09/05 05:40:25;;;;;;;11.77;7.95;;;;;;;18.68;100.00;95332.81;5033613;28;20297;-59
2022/09/05 05:42:51;;;;;;;10.50;7.40;;;;;;;18.45;100.00;95290.66;5033560;28;20218;-62
2022/09/05 05:45:24;;;;;;;12.30;7.50;;;;;;;18.52;100.00;95299.34;5033414;28;20279;-61
2022/09/05 05:47:55;;;;;;;9.60;7.30;;;;;;;18.56;100.00;95307.53;5015602;28;20189;-63
2022/09/05 05:50:49;;;;;;;9.20;7.50;;;;;;;18.34;100.00;95286.59;5033388;28;20275;-62
2022/09/05 05:53:29;;;;;;;9.27;8.20;;;;;;;18.31;100.00;95258.59;5033259;28;20186;-61
2022/09/05 05:56:04;;;;;;;9.60;7.07;;;;;;;18.26;100.00;95239.47;5033485;28;20739;-62
2022/09/05 05:58:41;;;;;;;8.43;7.40;;;;;;;18.40;100.00;95301.38;5033165;28;20248;-59
2022/09/05 06:01:13;;;;;;;7.68;6.32;;;;;;;18.41;100.00;95333.91;5033363;28;20729;-61
2022/09/05 06:03:41;;;;;;;11.25;6.68;;;;;;;18.28;100.00;95323.28;5032848;28;20301;-61
2022/09/05 06:06:26;;;;;;;8.00;6.88;;;;;;;18.31;100.00;95330.69;5033286;28;20210;-60
2022/09/05 06:09:42;;;;;;;8.63;6.88;;;;;;;18.16;100.00;95291.09;5033002;28;20296;-62
2022/09/05 06:12:37;;;;;;;9.75;6.88;;;;;;;18.09;100.00;95285.00;5033024;28;20225;-60
2022/09/05 06:15:24;;;;;;;8.48;6.88;;;;;;;18.11;100.00;95267.63;5033104;28;20614;-62
2022/09/05 06:18:09;;;;;;;9.80;8.50;;;;;;;18.35;100.00;95305.41;5033020;28;20205;-61
2022/09/05 06:20:53;;;;;;;8.10;6.95;;;;;;;18.53;100.00;95341.31;5032892;28;20186;-62
2022/09/05 06:23:49;;;;;;;9.32;7.45;;;;;;;18.33;100.00;95310.75;5032671;28;20194;-61
2022/09/05 06:26:43;;;;;;;6.70;5.28;;;;;;;18.31;100.00;95324.72;5032591;28;20205;-61
2022/09/05 06:29:44;;;;;;;6.60;6.00;;;;;;;18.13;100.00;95280.31;5032688;28;20217;-61
2022/09/05 06:32:18;;;;;;;5.78;5.28;;;;;;;18.07;100.00;95286.91;4994648;28;20213;-62
2022/09/05 06:35:01;;;;;;;6.38;5.70;;;;;;;18.32;100.00;95185.53;5032591;28;20212;-61
2022/09/05 06:37:48;;;;;;;7.35;5.18;;;;;;;18.42;100.00;95296.09;5032631;28;20221;-60
2022/09/05 06:40:14;;;;;;;6.68;5.18;;;;;;;18.58;100.00;95345.06;5032595;28;20244;-60
2022/09/05 06:43:00;;;;;;;6.38;5.25;;;;;;;18.70;100.00;95397.03;5032549;28;20631;-61
2022/09/05 06:45:51;;;;;;;7.25;4.63;;;;;;;18.48;100.00;95335.88;5032415;28;20245;-62
2022/09/05 06:48:46;;;;;;;5.32;4.82;;;;;;;18.60;100.00;95325.09;5032399;28;20695;-61
2022/09/05 06:51:12;;;;;;;5.82;5.22;;;;;;;18.66;100.00;95321.06;5009062;28;20256;-60
2022/09/05 06:54:02;;;;;;;4.85;4.38;;;;;;;18.66;100.00;95375.97;5032386;28;20700;-60
2022/09/05 06:56:33;;;;;;;6.82;4.40;;;;;;;18.78;100.00;95379.00;5032651;28;20669;-61
2022/09/05 06:59:21;;;;;;;7.07;4.72;;;;;;;18.87;100.00;95373.69;5032092;28;20221;-61
2022/09/05 07:01:55;;;;;;;6.95;4.68;;;;;;;18.98;100.00;95414.59;5014458;28;20194;-60
2022/09/05 07:04:21;;;;;;;8.15;4.15;;;;;;;19.05;100.00;95432.78;5014363;28;20300;-62
2022/09/05 07:07:14;;;;;;;5.60;4.68;;;;;;;19.09;100.00;95418.59;5031869;28;20240;-61
2022/09/05 07:09:58;;;;;;;4.88;4.10;;;;;;;19.13;100.00;95358.00;5031871;28;20209;-61
2022/09/05 07:12:38;;;;;;;4.43;3.78;;;;;;;19.22;100.00;95400.88;5031968;28;20202;-62
2022/09/05 07:15:40;;;;;;;4.63;4.28;;;;;;;19.30;100.00;95413.75;5031390;28;20276;-62
2022/09/05 07:18:24;;;;;;;4.32;3.92;;;;;;;19.49;100.00;95454.69;5013987;28;20672;-62
2022/09/05 07:21:02;;;;;;;4.28;3.80;;;;;;;19.44;100.00;95409.69;5013709;28;20252;-61
2022/09/05 07:23:54;;;;;;;4.18;3.83;;;;;;;19.31;100.00;95397.28;5031964;28;20190;-62
2022/09/05 07:26:21;;;;;;;4.07;3.67;;;;;;;19.52;100.00;95422.56;5032009;28;20340;-60
2022/09/05 07:28:52;;;;;;;6.68;3.85;;;;;;;19.63;100.00;95454.00;5031736;28;20230;-60
2022/09/05 07:31:25;;;;;;;3.70;3.40;;;;;;;19.68;100.00;95432.84;5031855;28;20209;-61
2022/09/05 07:34:07;;;;;;;6.25;4.28;;;;;;;19.79;100.00;95466.88;5014056;28;20229;-62
2022/09/05 07:36:44;;;;;;;5.55;3.30;;;;;;;19.80;100.00;95493.47;5032277;28;20194;-60
2022/09/05 07:39:19;;;;;;;3.53;3.22;;;;;;;19.89;100.00;95493.28;5031606;28;20216;-62
2022/09/05 07:41:52;;;;;;;4.63;3.95;;;;;;;19.74;100.00;95445.09;5032263;28;20178;-61
2022/09/05 07:44:28;;;;;;;6.00;2.60;;;;;;;19.74;100.00;95435.56;5031841;28;20244;-61
2022/09/05 07:47:23;;;;;;;3.75;3.10;;;;;;;20.03;100.00;95420.31;5031730;28;20201;-62
2022/09/05 07:49:51;;;;;;;3.85;3.42;;;;;;;20.24;100.00;95437.81;5031455;28;20218;-62
2022/09/05 07:52:19;;;;;;;3.58;3.28;;;;;;;20.38;100.00;95475.03;5013684;28;20205;-62
2022/09/05 07:54:46;;;;;;;6.30;4.15;;;;;;;20.34;100.00;95415.16;5013526;28;20214;-62
2022/09/05 07:57:36;;;;;;;9.05;3.05;;;;;;;20.49;100.00;95472.88;5031539;28;20217;-60
2022/09/05 08:00:08;;;;;;;4.20;2.92;;;;;;;20.39;100.00;95412.06;5013198;28;20240;-60
2022/09/05 08:02:34;;;;;;;7.05;3.17;;;;;;;19.99;100.00;95442.28;5031323;28;20252;-61
2022/09/05 08:05:05;;;;;;;4.13;3.42;;;;;;;20.06;100.00;95422.53;5031249;28;20245;-62
2022/09/05 08:07:36;;;;;;;5.35;3.67;;;;;;;20.08;100.00;95406.88;5013472;28;20187;-62
2022/09/05 08:10:09;;;;;;;4.07;3.30;;;;;;;20.24;100.00;95390.53;5014180;28;20233;-61
2022/09/05 08:12:47;;;;;;;3.45;3.20;;;;;;;20.21;100.00;95411.53;5013346;28;20194;-61
2022/09/05 08:15:22;;;;;;;3.58;3.28;;;;;;;20.35;100.00;95418.53;5031216;28;20225;-61
2022/09/05 08:18:11;;;;;;;4.18;3.20;;;;;;;20.14;100.00;95449.31;5031340;28;20185;-60
2022/09/05 08:21:20;;;;;;;3.47;2.92;;;;;;;20.33;100.00;95426.47;5013530;28;20748;-60
2022/09/05 08:23:56;;;;;;;2.60;2.40;;;;;;;20.51;100.00;95414.09;4983850;28;20316;-62
2022/09/05 08:26:35;;;;;;;3.55;2.28;;;;;;;20.56;100.00;95491.88;5030362;28;20225;-62
2022/09/05 08:29:09;;;;;;;3.50;2.53;;;;;;;20.78;98.13;95529.91;5030955;28;20237;-62
2022/09/05 08:31:50;;;;;;;3.45;2.25;;;;;;;20.80;96.11;95563.31;5031089;28;20740;-63
2022/09/05 08:34:26;;;;;;;3.92;2.78;;;;;;;21.05;95.79;95553.69;5013083;28;20704;-62
2022/09/05 08:36:54;;;;;;;3.42;2.58;;;;;;;21.11;96.63;95530.50;5030922;28;20193;-61
2022/09/05 08:39:24;;;;;;;4.53;4.00;;;;;;;21.37;95.83;95536.13;5030724;28;20238;-61
2022/09/05 08:42:21;;;;;;;5.60;2.85;;;;;;;21.51;91.64;95602.63;5031342;28;20214;-63
2022/09/05 08:45:17;;;;;;;5.30;2.92;;;;;;;21.58;91.94;95579.47;5012835;28;20276;-62
2022/09/05 08:48:14;;;;;;;4.38;3.03;;;;;;;21.42;91.13;95577.81;5030744;28;20198;-63
2022/09/05 08:50:54;;;;;;;3.38;2.60;;;;;;;21.71;92.16;95533.88;5013460;28;20185;-62
2022/09/05 08:53:59;;;;;;;3.80;3.15;;;;;;;21.70;91.06;95560.75;5012835;28;20255;-63
2022/09/05 08:56:34;;;;;;;4.22;2.28;;;;;;;21.82;90.42;95561.16;5012996;28;20198;-63
2022/09/05 08:59:27;;;;;;;2.63;2.30;;;;;;;21.66;91.18;95550.91;5030801;28;20209;-62
2022/09/05 09:02:14;;;;;;;3.05;2.50;;;;;;;21.50;91.83;95533.75;5030561;28;20220;-61
2022/09/05 09:04:57;;;;;;;2.75;2.47;;;;;;;21.67;91.74;95527.44;5030350;28;20248;-63
2022/09/05 09:07:42;;;;;;;5.00;2.70;;;;;;;22.34;89.57;95564.50;5012760;28;20220;-60
2022/09/05 09:10:26;;;;;;;3.00;2.35;;;;;;;22.55;84.78;95641.53;5030308;28;20208;-60
2022/09/05 09:13:19;;;;;;;3.63;2.60;;;;;;;22.43;82.41;95617.03;5030430;28;20208;-59
2022/09/05 09:16:05;;;;;;;3.10;2.50;;;;;;;22.41;75.06;95614.63;5030580;28;20262;-60
2022/09/05 09:18:56;;;;;;;2.45;2.25;;;;;;;22.62;70.36;95673.59;5030311;28;20764;-60
2022/09/05 09:21:24;;;;;;;2.45;2.25;;;;;;;22.76;74.11;95576.03;5030684;28;20187;-62
2022/09/05 09:24:15;;;;;;;3.58;2.80;;;;;;;23.12;70.11;95665.84;5030241;28;20210;-61
2022/09/05 09:26:48;;;;;;;2.85;2.30;;;;;;;23.38;71.13;95630.81;5030720;28;20205;-62
2022/09/05 09:29:17;;;;;;;3.05;2.70;;;;;;;23.68;67.46;95656.50;5012498;28;20206;-62
2022/09/05 09:32:00;;;;;;;2.85;2.33;;;;;;;23.65;63.97;95713.19;5012613;28;20182;-61
2022/09/05 09:34:27;;;;;;;2.33;2.03;;;;;;;24.32;64.48;95683.22;5012305;28;20554;-60
2022/09/05 09:37:26;;;;;;;2.28;2.08;;;;;;;24.44;66.08;95628.94;5030925;28;20592;-63
2022/09/05 09:40:16;;;;;;;3.30;2.70;;;;;;;24.13;68.09;95587.75;5015645;28;20241;-63
2022/09/05 09:43:01;;;;;;;2.67;2.20;;;;;;;23.76;62.00;95700.53;5033291;28;20202;-62
2022/09/05 09:45:42;;;;;;;10.57;2.67;;;;;;;23.76;64.78;95621.78;5033584;28;20217;-61
2022/09/05 09:48:11;;;;;;;2.97;2.42;;;;;;;23.82;66.49;95575.09;5033728;28;20224;-62
2022/09/05 09:51:05;;;;;;;3.38;2.50;;;;;;;24.40;64.72;95615.50;5033441;28;20186;-63
2022/09/05 09:53:41;;;;;;;3.80;2.30;;;;;;;24.88;62.70;95656.22;5033196;28;20219;-63
2022/09/05 09:56:20;;;;;;;2.58;2.33;;;;;;;24.72;61.22;95664.31;5015822;28;20197;-64
2022/09/05 09:59:04;;;;;;;2.85;2.33;;;;;;;24.33;59.35;95703.06;5015323;28;20226;-63
2022/09/05 10:01:52;;;;;;;2.72;2.53;;;;;;;24.86;57.68;95692.03;5033079;28;20190;-64
2022/09/05 10:04:52;;;;;;;2.53;2.30;;;;;;;25.57;58.69;95645.66;5040651;22;20226;-60
2022/09/05 10:07:43;;;;;;;2.85;2.55;;;;;;;25.13;61.19;95555.00;5016250;28;20212;-57
2022/09/05 10:10:15;;;;;;;8.25;2.63;;;;;;;24.89;76.28;95274.53;5032842;28;20588;-63
2022/09/05 10:12:40;;;;;;;3.80;2.60;;;;;;;24.97;69.56;95409.63;5033030;28;20292;-59
2022/09/05 10:15:33;;;;;;;2.95;2.28;;;;;;;24.93;61.22;95562.75;5033014;28;20205;-61
2022/09/05 10:18:02;;;;;;;2.85;2.65;;;;;;;24.71;60.26;95566.44;5032923;28;20260;-62
2022/09/05 10:20:38;;;;;;;2.63;2.42;;;;;;;24.77;62.41;95507.66;5033079;28;20270;-61
2022/09/05 10:23:04;;;;;;;3.00;2.80;;;;;;;23.97;60.43;95549.03;5032755;28;20194;-60
2022/09/05 10:25:41;;;;;;;3.42;2.47;;;;;;;23.95;60.64;95536.22;5033155;28;20654;-61
2022/09/05 10:28:26;;;;;;;3.25;2.70;;;;;;;23.81;62.15;95495.56;5014969;28;20583;-60
2022/09/05 10:31:00;;;;;;;3.35;2.63;;;;;;;23.42;65.06;95422.59;5032823;28;20288;-61
2022/09/05 10:33:37;;;;;;;3.88;2.40;;;;;;;23.86;62.23;95492.38;5032753;28;20221;-59
2022/09/05 10:36:08;;;;;;;2.45;2.25;;;;;;;24.33;63.35;95476.06;5032989;28;20182;-60
2022/09/05 10:38:44;;;;;;;2.70;2.50;;;;;;;24.48;60.86;95516.56;5032953;28;20590;-63
2022/09/05 10:41:14;;;;;;;4.30;2.85;;;;;;;24.39;63.95;95451.91;5032719;28;20668;-62
2022/09/05 10:43:56;;;;;;;6.15;2.60;;;;;;;24.69;61.32;95513.81;5014998;28;20214;-64
2022/09/05 10:46:29;;;;;;;2.70;2.50;;;;;;;24.72;62.49;95471.81;5014632;28;20226;-62
2022/09/05 10:49:03;;;;;;;3.97;2.55;;;;;;;24.73;65.14;95400.59;5031699;28;20207;-59
2022/09/05 10:51:38;;;;;;;5.32;2.50;;;;;;;24.58;66.66;95376.56;5033603;28;20186;-59
2022/09/05 10:54:24;;;;;;;2.72;2.05;;;;;;;24.36;56.61;95598.66;5032434;28;20651;-64
2022/09/05 10:57:06;;;;;;;4.03;2.45;;;;;;;25.19;58.98;95522.19;5032866;28;20221;-62
2022/09/05 11:00:28;;;;;;;2.47;2.22;;;;;;;25.90;55.68;95563.09;5014384;28;20217;-63
2022/09/05 11:02:59;;;;;;;2.53;2.33;;;;;;;26.33;55.04;95569.50;5032227;28;20278;-61
2022/09/05 11:05:27;;;;;;;2.30;2.10;;;;;;;26.68;53.52;95597.88;5014471;28;20723;-62
2022/09/05 11:08:04;;;;;;;2.53;2.33;;;;;;;27.04;52.01;95604.22;5032390;28;20209;-64
2022/09/05 11:10:36;;;;;;;3.33;2.42;;;;;;;26.68;51.48;95593.47;5032045;28;20212;-63
2022/09/05 11:13:09;;;;;;;2.40;2.20;;;;;;;26.26;53.39;95536.63;5032251;28;20190;-59
2022/09/05 11:15:43;;;;;;;2.70;2.33;;;;;;;26.49;54.21;95519.47;5014568;28;20723;-64
2022/09/05 11:18:22;;;;;;;3.10;2.80;;;;;;;26.63;55.47;95497.53;5032123;28;20196;-60
2022/09/05 11:21:06;;;;;;;2.83;2.50;;;;;;;26.73;53.24;95541.47;5032179;28;20282;-60
2022/09/05 11:23:42;;;;;;;2.80;2.50;;;;;;;26.43;53.80;95517.69;5032519;28;20301;-59
2022/09/05 11:26:28;;;;;;;2.72;2.53;;;;;;;26.59;54.56;95495.56;5014262;28;20213;-64
2022/09/05 11:29:04;;;;;;;5.13;3.03;;;;;;;27.02;54.49;95493.94;5032612;28;20683;-60
2022/09/05 11:31:45;;;;;;;2.67;2.47;;;;;;;27.51;51.87;95545.50;5032028;28;20194;-65
2022/09/05 11:34:31;;;;;;;3.25;2.20;;;;;;;27.67;48.62;95620.75;5033129;28;20201;-61
2022/09/05 11:37:01;;;;;;;3.08;2.40;;;;;;;27.63;52.47;95509.81;5030913;28;20204;-60
2022/09/05 11:39:58;;;;;;;2.40;2.20;;;;;;;28.01;49.35;95577.69;5011884;28;20213;-61
2022/09/05 11:42:47;;;;;;;4.63;2.20;;;;;;;28.15;47.35;95613.16;5013897;28;20194;-60
2022/09/05 11:45:49;;;;;;;3.08;2.22;;;;;;;28.65;50.66;95524.91;4999008;28;20279;-59
2022/09/05 11:48:39;;;;;;;5.88;2.33;;;;;;;28.35;45.00;95649.59;5032521;28;20278;-62
2022/09/05 11:51:17;;;;;;;5.00;2.58;;;;;;;28.39;42.48;95693.44;5031922;28;20186;-63
2022/09/05 11:54:10;;;;;;;2.08;1.98;;;;;;;28.61;46.31;95561.19;5014524;28;20226;-61
2022/09/05 11:57:24;;;;;;;2.22;2.10;;;;;;;29.40;46.71;95557.56;5033247;28;20190;-63
2022/09/05 12:00:01;;;;;;;2.60;2.40;;;;;;;29.58;45.70;95567.97;4996218;28;20336;-61
2022/09/05 12:02:59;;;;;;;2.40;2.20;;;;;;;29.75;42.06;95651.06;5031439;28;20203;-61
2022/09/05 12:05:39;;;;;;;3.08;2.35;;;;;;;30.29;42.62;95630.88;5030980;28;20218;-60
2022/09/05 12:08:38;;;;;;;2.17;2.08;;;;;;;29.94;39.87;95685.09;5031412;28;20218;-61
2022/09/05 12:11:43;;;;;;;2.30;2.00;;;;;;;30.17;38.47;95683.31;5031009;28;20194;-61
2022/09/05 12:14:29;;;;;;;1.90;1.80;;;;;;;28.91;42.86;95548.94;5031009;28;20202;-61
2022/09/05 12:17:22;;;;;;;2.85;2.40;;;;;;;28.61;43.04;95545.50;5032186;28;20229;-62
2022/09/05 12:19:50;;;;;;;3.30;3.00;;;;;;;28.43;43.77;95526.34;5031368;28;20213;-61
2022/09/05 12:22:49;;;;;;;3.47;2.28;;;;;;;27.31;44.34;95505.63;5031365;28;20592;-61
2022/09/05 12:25:49;;;;;;;3.63;2.40;;;;;;;26.12;46.86;95439.38;5012833;28;20222;-63
2022/09/05 12:28:30;;;;;;;4.88;2.60;;;;;;;26.39;46.45;95466.94;5021302;28;20221;-61
2022/09/05 12:31:37;;;;;;;2.80;2.60;;;;;;;27.68;46.36;95456.88;5030960;28;20202;-61
2022/09/05 12:34:08;;;;;;;2.58;2.25;;;;;;;28.40;44.66;95505.84;4951262;29;20213;-61
2022/09/05 12:36:46;;;;;;;5.45;2.60;;;;;;;29.04;43.15;95537.50;5021201;28;20214;-61
2022/09/05 12:39:42;;;;;;;2.58;2.42;;;;;;;29.83;41.36;95594.88;5030639;28;20726;-62
2022/09/05 12:42:17;;;;;;;3.22;2.00;;;;;;;29.72;40.04;95614.78;5030443;28;20286;-61
2022/09/05 12:45:23;;;;;;;4.13;2.13;;;;;;;29.58;40.15;95608.13;5030495;28;20213;-62
2022/09/05 12:48:12;;;;;;;4.13;2.63;;;;;;;28.90;41.59;95567.50;5030651;28;20190;-61
2022/09/05 12:50:54;;;;;;;2.95;2.70;;;;;;;28.57;43.02;95512.91;5012902;28;20202;-61
2022/09/05 12:53:23;;;;;;;3.15;2.90;;;;;;;27.78;46.41;95447.53;5030950;28;20186;-61
2022/09/05 12:56:07;;;;;;;3.10;2.45;;;;;;;27.66;44.43;95491.06;5031147;28;20574;-62